createdAt,value
2018-02-14T00:00:48.706Z,8.27
2018-02-14T00:03:17.679Z,12.23
2018-02-14T00:05:45.866Z,12.13
2018-02-14T00:08:14.094Z,7.05
2018-02-14T00:10:42.274Z,7.30
2018-02-14T00:13:10.454Z,10.65
2018-02-14T00:15:38.642Z,8.77
2018-02-14T00:18:06.837Z,7.50
2018-02-14T00:20:35.023Z,7.82
2018-02-14T00:23:03.991Z,7.45
2018-02-14T00:25:32.222Z,11.30
2018-02-14T00:28:00.419Z,9.35
2018-02-14T00:30:28.705Z,6.75
2018-02-14T00:32:56.882Z,6.70
2018-02-14T00:35:25.091Z,7.53
2018-02-14T00:37:54.057Z,8.80
2018-02-14T00:40:22.234Z,8.10
2018-02-14T00:42:50.437Z,10.13
2018-02-14T00:45:19.384Z,8.40
2018-02-14T00:47:48.363Z,11.90
2018-02-14T00:50:16.653Z,9.68
2018-02-14T00:52:44.848Z,11.12
2018-02-14T00:55:13.031Z,10.73
2018-02-14T00:57:41.213Z,8.70
2018-02-14T01:00:09.439Z,7.12
2018-02-14T01:02:37.605Z,7.93
2018-02-14T01:05:05.772Z,7.05
2018-02-14T01:07:33.979Z,6.95
2018-02-14T01:10:02.149Z,16.85
2018-02-14T01:12:30.330Z,8.25
2018-02-14T01:14:58.510Z,8.32
2018-02-14T01:17:26.698Z,9.02
2018-02-14T01:20:00.410Z,8.93
2018-02-14T01:22:28.589Z,9.32
2018-02-14T01:24:56.773Z,8.57
2018-02-14T01:27:25.718Z,9.65
2018-02-14T01:29:53.943Z,7.93
2018-02-14T01:32:22.905Z,10.27
2018-02-14T01:34:51.090Z,7.18
2018-02-14T01:37:19.269Z,7.40
2018-02-14T01:39:47.482Z,7.25
2018-02-14T01:42:15.666Z,6.10
2018-02-14T01:44:43.850Z,6.62
2018-02-14T01:47:12.103Z,9.27
2018-02-14T01:49:41.038Z,6.87
2018-02-14T01:52:09.227Z,10.48
2018-02-14T01:54:37.432Z,10.32
2018-02-14T01:57:06.393Z,7.10
2018-02-14T01:59:34.561Z,6.72
2018-02-14T02:02:03.522Z,8.40
2018-02-14T02:04:31.712Z,6.97
2018-02-14T02:06:59.879Z,8.10
2018-02-14T02:09:28.045Z,9.65
2018-02-14T02:11:56.261Z,8.85
2018-02-14T02:14:24.455Z,9.32
2018-02-14T02:16:52.642Z,7.62
2018-02-14T02:19:21.602Z,7.57
2018-02-14T02:21:50.574Z,7.37
2018-02-14T02:24:18.745Z,6.20
2018-02-14T02:26:46.933Z,7.03
2018-02-14T02:29:15.106Z,7.43
2018-02-14T02:31:43.286Z,9.65
2018-02-14T02:34:11.500Z,7.85
2018-02-14T02:36:40.443Z,8.32
2018-02-14T02:39:26.397Z,7.10
2018-02-14T02:41:55.353Z,10.93
2018-02-14T02:44:23.534Z,6.80
2018-02-14T02:46:51.765Z,6.12
2018-02-14T02:49:19.966Z,8.27
2018-02-14T02:51:48.182Z,6.93
2018-02-14T02:54:17.131Z,10.93
2018-02-14T02:56:45.311Z,6.97
2018-02-14T02:59:13.500Z,6.53
2018-02-14T03:01:41.697Z,7.82
2018-02-14T03:04:10.650Z,6.72
2018-02-14T03:06:38.845Z,7.78
2018-02-14T03:09:07.048Z,6.22
2018-02-14T03:11:35.986Z,7.65
2018-02-14T03:14:04.177Z,5.68
2018-02-14T03:16:32.341Z,7.78
2018-02-14T03:19:00.546Z,7.40
2018-02-14T03:21:28.745Z,9.10
2018-02-14T03:23:56.932Z,7.68
2018-02-14T03:26:25.107Z,7.87
2018-02-14T03:28:53.332Z,8.80
2018-02-14T03:31:21.520Z,12.05
2018-02-14T03:33:49.703Z,6.78
2018-02-14T03:36:18.695Z,7.55
2018-02-14T03:38:47.659Z,8.80
2018-02-14T03:41:15.839Z,9.90
2018-02-14T03:43:44.046Z,9.48
2018-02-14T03:46:13.016Z,8.13
2018-02-14T03:48:41.198Z,7.80
2018-02-14T03:51:09.374Z,6.60
2018-02-14T03:53:37.553Z,8.43
2018-02-14T03:56:06.502Z,8.45
2018-02-14T03:58:34.681Z,9.25
2018-02-14T04:01:02.866Z,5.70
2018-02-14T04:03:31.054Z,7.97
2018-02-14T04:05:59.246Z,7.50
2018-02-14T04:08:27.462Z,5.75
2018-02-14T04:10:55.643Z,6.75
2018-02-14T04:13:23.817Z,6.57
2018-02-14T04:15:52.014Z,9.45
2018-02-14T04:18:20.232Z,11.88
2018-02-14T04:20:49.178Z,7.43
2018-02-14T04:23:17.399Z,8.25
2018-02-14T04:25:46.353Z,8.68
2018-02-14T04:28:24.460Z,8.50
2018-02-14T04:30:52.667Z,8.43
2018-02-14T04:33:21.603Z,6.62
2018-02-14T04:35:49.790Z,9.80
2018-02-14T04:38:17.978Z,8.73
2018-02-14T04:40:46.154Z,7.37
2018-02-14T04:43:14.329Z,9.52
2018-02-14T04:45:42.509Z,7.60
2018-02-14T04:48:10.686Z,10.57
2018-02-14T04:50:38.885Z,10.07
2018-02-14T04:53:07.834Z,8.07
2018-02-14T04:55:36.813Z,9.07
2018-02-14T04:58:04.991Z,9.07
2018-02-14T05:00:33.194Z,7.47
2018-02-14T05:03:01.361Z,9.68
2018-02-14T05:05:29.549Z,10.93
2018-02-14T05:07:57.719Z,9.55
2018-02-14T05:10:25.899Z,9.75
2018-02-14T05:12:54.078Z,8.35
2018-02-14T05:15:22.263Z,12.63
2018-02-14T05:17:51.207Z,12.93
2018-02-14T05:20:19.385Z,12.60
2018-02-14T05:22:47.575Z,10.23
2018-02-14T05:25:15.765Z,11.55
2018-02-14T05:27:43.951Z,9.95
2018-02-14T05:30:12.156Z,10.57
2018-02-14T05:32:40.326Z,9.75
2018-02-14T05:35:08.509Z,12.50
2018-02-14T05:37:36.817Z,7.28
2018-02-14T05:40:05.019Z,10.45
2018-02-14T05:42:33.189Z,9.45
2018-02-14T05:45:01.397Z,14.65
2018-02-14T05:47:30.338Z,13.13
2018-02-14T05:49:58.530Z,13.93
2018-02-14T05:52:26.720Z,13.27
2018-02-14T05:54:54.899Z,12.02
2018-02-14T05:57:23.858Z,8.70
2018-02-14T05:59:52.050Z,17.67
2018-02-14T06:02:20.237Z,10.85
2018-02-14T06:04:48.421Z,8.60
2018-02-14T06:07:17.355Z,11.52
2018-02-14T06:09:45.528Z,11.10
2018-02-14T06:12:13.764Z,10.55
2018-02-14T06:14:42.700Z,11.10
2018-02-14T06:17:10.886Z,9.75
2018-02-14T06:19:39.071Z,8.65
2018-02-14T06:22:07.287Z,7.72
2018-02-14T06:24:36.399Z,10.23
2018-02-14T06:27:04.622Z,7.82
2018-02-14T06:29:32.855Z,11.75
2018-02-14T06:32:01.138Z,10.85
2018-02-14T06:34:29.441Z,10.73
2018-02-14T06:36:58.485Z,11.65
2018-02-14T06:39:26.697Z,10.52
2018-02-14T06:41:54.901Z,14.60
2018-02-14T06:44:23.094Z,8.23
2018-02-14T06:46:52.049Z,9.40
2018-02-14T06:49:20.238Z,10.68
2018-02-14T06:51:48.457Z,8.73
2018-02-14T06:54:16.637Z,10.07
2018-02-14T06:56:44.838Z,10.65
2018-02-14T06:59:13.029Z,16.52
2018-02-14T07:01:41.256Z,13.20
2018-02-14T07:04:09.471Z,16.33
2018-02-14T07:06:37.687Z,9.55
2018-02-14T07:09:06.767Z,13.73
2018-02-14T07:11:35.034Z,10.90
2018-02-14T07:14:03.262Z,11.55
2018-02-14T07:16:31.484Z,9.23
2018-02-14T07:18:59.690Z,10.75
2018-02-14T07:21:29.387Z,11.02
2018-02-14T07:23:57.611Z,16.67
2018-02-14T07:26:25.803Z,22.90
2018-02-14T07:28:53.993Z,14.02
2018-02-14T07:31:22.200Z,11.25
2018-02-14T07:33:51.208Z,12.37
2018-02-14T07:36:20.322Z,12.98
2018-02-14T07:38:48.623Z,9.75
2018-02-14T07:41:16.823Z,9.65
2018-02-14T07:43:45.050Z,15.05
2018-02-14T07:46:13.270Z,12.70
2018-02-14T07:48:41.464Z,13.48
2018-02-14T07:51:10.465Z,16.00
2018-02-14T07:53:39.462Z,14.40
2018-02-14T07:56:08.434Z,16.50
2018-02-14T07:58:36.601Z,15.15
2018-02-14T08:01:04.795Z,12.93
2018-02-14T08:03:33.018Z,12.40
2018-02-14T08:06:01.471Z,13.73
2018-02-14T08:08:29.678Z,13.07
2018-02-14T08:10:57.899Z,10.55
2018-02-14T08:13:26.097Z,13.02
2018-02-14T08:15:54.283Z,9.68
2018-02-14T08:18:22.517Z,12.57
2018-02-14T08:20:50.720Z,11.40
2018-02-14T08:23:18.949Z,9.68
2018-02-14T08:25:47.922Z,10.27
2018-02-14T08:28:16.110Z,14.38
2018-02-14T08:30:44.392Z,14.25
2018-02-14T08:33:12.561Z,11.85
2018-02-14T08:35:40.769Z,9.90
2018-02-14T08:38:08.971Z,11.15
2018-02-14T08:40:37.165Z,11.43
2018-02-14T08:43:05.378Z,15.10
2018-02-14T08:45:33.568Z,22.47
2018-02-14T08:48:01.794Z,12.47
2018-02-14T08:50:30.001Z,14.13
2018-02-14T08:52:58.282Z,12.00
2018-02-14T08:55:26.480Z,9.57
2018-02-14T08:57:55.507Z,9.63
2018-02-14T09:00:23.703Z,9.63
2018-02-14T09:02:51.905Z,14.87
2018-02-14T09:05:20.092Z,11.20
2018-02-14T09:07:48.316Z,8.47
2018-02-14T09:10:16.484Z,11.70
2018-02-14T09:12:44.671Z,12.50
2018-02-14T09:15:12.846Z,13.37
2018-02-14T09:17:41.020Z,13.23
2018-02-14T09:20:09.342Z,11.90
2018-02-14T09:22:37.518Z,11.17
2018-02-14T09:25:05.697Z,12.13
2018-02-14T09:27:34.690Z,9.60
2018-02-14T09:30:02.893Z,11.97
2018-02-14T09:32:31.093Z,12.00
2018-02-14T09:34:59.308Z,10.60
2018-02-14T09:37:27.521Z,9.83
2018-02-14T09:39:55.721Z,10.90
2018-02-14T09:42:23.925Z,10.93
2018-02-14T09:44:52.139Z,13.10
2018-02-14T09:47:20.312Z,11.40
2018-02-14T09:49:49.283Z,11.23
2018-02-14T09:52:17.507Z,12.27
2018-02-14T09:54:45.665Z,8.27
2018-02-14T09:57:13.886Z,10.73
2018-02-14T09:59:42.075Z,11.50
2018-02-14T10:02:10.237Z,8.70
2018-02-14T10:04:38.435Z,10.47
2018-02-14T10:07:07.380Z,8.37
2018-02-14T10:09:35.599Z,11.17
2018-02-14T10:12:03.790Z,8.70
2018-02-14T10:14:32.748Z,9.73
2018-02-14T10:17:00.928Z,10.30
2018-02-14T10:19:29.118Z,16.13
2018-02-14T10:21:57.306Z,10.90
2018-02-14T10:24:26.241Z,10.07
2018-02-14T10:26:54.408Z,8.23
2018-02-14T10:29:22.581Z,11.30
2018-02-14T10:31:50.735Z,8.63
2018-02-14T10:34:18.935Z,7.80
2018-02-14T10:36:47.092Z,9.03
2018-02-14T10:39:15.264Z,9.23
2018-02-14T10:41:43.425Z,11.17
2018-02-14T10:44:12.368Z,7.67
2018-02-14T10:46:40.556Z,9.47
2018-02-14T10:49:08.731Z,8.40
2018-02-14T10:51:36.901Z,8.27
2018-02-14T10:54:05.079Z,7.03
2018-02-14T10:56:33.270Z,7.57
2018-02-14T10:59:01.493Z,9.17
2018-02-14T11:01:35.289Z,8.27
2018-02-14T11:04:09.082Z,8.50
2018-02-14T11:06:38.067Z,7.40
2018-02-14T11:09:07.012Z,7.17
2018-02-14T11:11:35.229Z,7.00
2018-02-14T11:14:04.170Z,8.33
2018-02-14T11:16:32.323Z,6.93
2018-02-14T11:19:00.487Z,8.80
2018-02-14T11:21:29.438Z,7.57
2018-02-14T11:23:57.601Z,8.30
2018-02-14T11:26:25.786Z,8.10
2018-02-14T11:28:54.005Z,8.90
2018-02-14T11:31:22.217Z,7.90
2018-02-14T11:33:50.382Z,14.60
2018-02-14T11:36:18.563Z,9.37
2018-02-14T11:38:47.629Z,8.70
2018-02-14T11:41:15.797Z,7.50
2018-02-14T11:43:44.758Z,8.53
2018-02-14T11:46:12.947Z,8.10
2018-02-14T11:48:41.879Z,7.93
2018-02-14T11:51:10.040Z,8.13
2018-02-14T11:53:38.206Z,8.57
2018-02-14T11:56:07.156Z,8.40
2018-02-14T11:58:35.330Z,9.40
2018-02-14T12:01:03.523Z,8.53
2018-02-14T12:03:31.719Z,8.27
2018-02-14T12:06:00.644Z,8.13
2018-02-14T12:08:28.812Z,8.90
2018-02-14T12:10:57.833Z,9.40
2018-02-14T12:13:25.997Z,9.13
2018-02-14T12:15:54.196Z,8.43
2018-02-14T12:18:22.378Z,8.30
2018-02-14T12:20:50.545Z,8.30
2018-02-14T12:23:18.711Z,7.80
2018-02-14T12:25:46.886Z,9.50
2018-02-14T12:28:15.067Z,11.20
2018-02-14T12:30:43.270Z,11.70
2018-02-14T12:33:12.209Z,10.07
2018-02-14T12:35:40.385Z,7.83
2018-02-14T12:38:08.583Z,8.57
2018-02-14T12:40:36.768Z,8.87
2018-02-14T12:43:04.962Z,8.70
2018-02-14T12:45:33.914Z,8.50
2018-02-14T12:48:02.108Z,7.57
2018-02-14T12:50:30.303Z,8.57
2018-02-14T12:52:59.273Z,7.60
2018-02-14T12:55:28.309Z,7.23
2018-02-14T12:57:56.486Z,8.27
2018-02-14T13:00:24.690Z,7.70
2018-02-14T13:02:52.860Z,8.00
2018-02-14T13:05:21.071Z,8.30
2018-02-14T13:07:49.226Z,8.53
2018-02-14T13:10:17.389Z,7.93
2018-02-14T13:12:45.538Z,8.20
2018-02-14T13:15:13.717Z,9.10
2018-02-14T13:17:41.893Z,10.00
2018-02-14T13:20:10.058Z,9.00
2018-02-14T13:22:38.247Z,8.10
2018-02-14T13:25:06.424Z,8.03
2018-02-14T13:27:34.608Z,6.90
2018-02-14T13:30:02.796Z,12.30
2018-02-14T13:32:30.958Z,9.53
2018-02-14T13:34:59.138Z,9.40
2018-02-14T14:59:25.742Z,7.97
2018-02-14T15:01:53.909Z,9.53
2018-02-14T15:04:22.099Z,8.53
2018-02-14T15:06:51.469Z,6.63
2018-02-14T15:09:20.123Z,6.27
2018-02-14T15:11:50.622Z,11.47
2018-02-14T15:14:19.556Z,6.80
2018-02-14T15:16:48.485Z,7.50
2018-02-14T15:19:16.658Z,8.20
2018-02-14T15:21:44.836Z,6.93
2018-02-14T15:24:18.815Z,6.70
2018-02-14T15:26:48.715Z,10.03
2018-02-14T15:29:17.646Z,7.27
2018-02-14T15:31:45.898Z,9.37
2018-02-14T15:34:18.925Z,8.17
2018-02-14T15:36:47.857Z,8.87
2018-02-14T15:39:16.806Z,8.37
2018-02-14T15:41:45.611Z,7.93
2018-02-14T15:44:17.206Z,10.83
2018-02-14T15:46:46.168Z,10.63
2018-02-14T15:49:14.347Z,14.73
2018-02-14T15:51:42.564Z,10.30
2018-02-14T15:54:10.736Z,8.37
2018-02-14T15:56:38.918Z,14.23
2018-02-14T15:59:07.103Z,11.10
2018-02-14T16:01:35.290Z,10.73
2018-02-14T16:04:03.470Z,10.30
2018-02-14T16:06:31.648Z,8.13
2018-02-14T16:08:59.891Z,8.50
2018-02-14T16:11:28.080Z,8.70
2018-02-14T16:13:56.262Z,11.90
2018-02-14T16:16:24.478Z,12.00
2018-02-14T16:18:52.659Z,7.90
2018-02-14T16:21:21.618Z,9.17
2018-02-14T16:23:49.852Z,10.23
2018-02-14T16:26:18.048Z,8.93
2018-02-14T16:28:46.220Z,13.17
2018-02-14T16:31:14.391Z,12.07
2018-02-14T16:33:42.553Z,9.27
2018-02-14T16:36:10.727Z,9.57
2018-02-14T16:38:38.933Z,12.67
2018-02-14T16:41:07.138Z,8.53
2018-02-14T16:43:35.342Z,13.60
2018-02-14T16:46:03.545Z,10.70
2018-02-14T16:48:31.734Z,12.83
2018-02-14T16:50:59.907Z,14.00
2018-02-14T16:53:28.109Z,12.27
2018-02-14T16:55:56.287Z,19.23
2018-02-14T16:58:24.453Z,11.83
2018-02-14T17:00:52.639Z,13.00
2018-02-14T17:03:20.821Z,12.93
2018-02-14T17:05:49.765Z,17.57
2018-02-14T17:08:17.956Z,16.27
2018-02-14T17:10:46.890Z,14.90
2018-02-14T17:13:15.837Z,16.40
2018-02-14T17:15:44.041Z,12.77
2018-02-14T17:18:12.227Z,10.90
2018-02-14T17:20:41.172Z,17.77
2018-02-14T17:23:09.387Z,12.40
2018-02-14T17:25:37.568Z,12.60
2018-02-14T17:28:06.524Z,14.30
2018-02-14T17:30:35.472Z,15.83
2018-02-14T17:33:03.654Z,13.10
2018-02-14T17:35:31.834Z,13.43
2018-02-14T17:38:00.002Z,16.70
2018-02-14T17:40:28.177Z,37.70
2018-02-14T17:42:56.391Z,30.10
2018-02-14T17:45:24.566Z,13.50
2018-02-14T17:47:52.743Z,20.63
2018-02-14T17:50:20.933Z,13.80
2018-02-14T17:52:49.102Z,18.13
2018-02-14T17:55:17.273Z,16.83
2018-02-14T17:57:45.464Z,18.23
2018-02-14T18:00:13.680Z,16.90
2018-02-14T18:02:41.855Z,14.63
2018-02-14T18:05:10.029Z,12.80
2018-02-14T18:07:38.227Z,12.87
2018-02-14T18:10:06.394Z,18.87
2018-02-14T18:12:34.629Z,12.53
2018-02-14T18:15:03.594Z,18.77
2018-02-14T18:17:31.799Z,19.90
2018-02-14T18:20:00.742Z,16.77
2018-02-14T18:22:28.968Z,21.00
2018-02-14T18:24:57.920Z,24.00
2018-02-14T18:27:26.087Z,15.50
2018-02-14T18:29:54.276Z,15.40
2018-02-14T18:32:22.440Z,16.70
2018-02-14T18:34:50.609Z,20.27
2018-02-14T18:37:18.791Z,17.67
2018-02-14T18:39:46.964Z,17.47
2018-02-14T18:42:15.918Z,18.37
2018-02-14T18:44:44.095Z,16.93
2018-02-14T18:47:12.263Z,19.13
2018-02-14T18:49:40.448Z,23.10
2018-02-14T18:52:08.615Z,18.83
2018-02-14T18:54:36.786Z,18.63
2018-02-14T18:57:04.995Z,23.23
2018-02-14T18:59:33.177Z,19.40
2018-02-14T19:02:01.358Z,19.87
2018-02-14T19:04:29.564Z,24.70
2018-02-14T19:06:58.559Z,18.80
2018-02-14T19:09:27.559Z,31.67
2018-02-14T19:11:56.516Z,27.30
2018-02-14T19:14:25.486Z,30.53
2018-02-14T19:16:53.659Z,28.50
2018-02-14T19:19:21.888Z,34.23
2018-02-14T19:21:50.840Z,27.40
2018-02-14T19:24:19.802Z,26.17
2018-02-14T19:26:47.969Z,27.13
2018-02-14T19:29:16.178Z,26.40
2018-02-14T19:31:44.343Z,26.13
2018-02-14T19:34:12.532Z,19.70
2018-02-14T19:36:40.727Z,26.47
2018-02-14T19:39:08.892Z,22.60
2018-02-14T19:41:37.080Z,22.50
2018-02-14T19:44:05.286Z,21.73
2018-02-14T19:46:34.268Z,20.90
2018-02-14T19:49:03.222Z,24.80
2018-02-14T19:51:31.435Z,24.30
2018-02-14T19:54:00.382Z,22.10
2018-02-14T19:56:28.562Z,22.73
2018-02-14T19:58:57.518Z,24.33
2018-02-14T20:01:25.700Z,25.80
2018-02-14T20:03:53.876Z,26.20
2018-02-14T20:06:22.043Z,27.43
2018-02-14T20:08:50.222Z,22.40
2018-02-14T20:11:18.412Z,22.97
2018-02-14T20:13:46.614Z,23.00
2018-02-14T20:16:14.844Z,22.57
2018-02-14T20:18:43.024Z,26.12
2018-02-14T20:21:11.230Z,24.30
2018-02-14T20:23:39.517Z,21.87
2018-02-14T20:26:07.685Z,26.15
2018-02-14T20:28:35.866Z,20.10
2018-02-14T20:31:04.085Z,23.42
2018-02-14T20:33:32.274Z,25.50
2018-02-14T20:36:00.494Z,20.17
2018-02-14T20:38:28.683Z,24.75
2018-02-14T20:40:56.862Z,20.02
2018-02-14T20:43:25.819Z,24.00
2018-02-14T20:45:54.019Z,15.55
2018-02-14T20:48:22.238Z,20.42
2018-02-14T20:50:50.482Z,17.48
2018-02-14T20:53:19.438Z,17.77
2018-02-14T20:55:47.651Z,16.45
2018-02-14T20:58:16.681Z,19.30
2018-02-14T21:00:44.890Z,16.40
2018-02-14T21:03:13.263Z,17.58
2018-02-14T21:05:41.442Z,16.80
2018-02-14T21:08:09.662Z,20.95
2018-02-14T21:10:38.609Z,14.73
2018-02-14T21:13:06.807Z,19.08
2018-02-14T21:15:35.005Z,19.17
2018-02-14T21:18:03.977Z,23.55
2018-02-14T21:20:32.177Z,21.15
2018-02-14T21:23:00.404Z,23.77
2018-02-14T21:25:28.650Z,21.70
2018-02-14T21:27:56.825Z,24.80
2018-02-14T21:30:25.022Z,21.50
2018-02-14T21:32:53.212Z,23.12
2018-02-14T21:35:21.410Z,25.95
2018-02-14T21:37:50.371Z,19.10
2018-02-14T21:40:18.584Z,24.15
2018-02-14T21:42:47.564Z,29.15
2018-02-14T21:45:15.786Z,25.08
2018-02-14T21:47:43.980Z,21.17
2018-02-14T21:50:12.205Z,24.17
2018-02-14T21:52:41.173Z,28.38
2018-02-14T21:55:09.399Z,25.33
2018-02-14T21:57:37.594Z,21.85
2018-02-14T22:00:05.815Z,22.67
2018-02-14T22:02:34.036Z,25.95
2018-02-14T22:05:02.216Z,27.65
2018-02-14T22:07:30.415Z,25.88
2018-02-14T22:09:58.601Z,23.70
2018-02-14T22:12:26.801Z,25.98
2018-02-14T22:14:55.780Z,26.00
2018-02-14T22:17:23.976Z,27.58
2018-02-14T22:19:52.927Z,25.25
2018-02-14T22:22:21.108Z,26.33
2018-02-14T22:24:49.291Z,28.33
2018-02-14T22:27:17.469Z,30.35
2018-02-14T22:29:45.650Z,24.58
2018-02-14T22:32:13.884Z,23.92
2018-02-14T22:34:42.060Z,23.38
2018-02-14T22:37:10.246Z,26.48
2018-02-14T22:39:38.468Z,23.83
2018-02-14T22:42:07.425Z,26.70
2018-02-14T22:44:35.610Z,26.12
2018-02-14T22:47:03.799Z,25.08
2018-02-14T22:49:32.760Z,22.25
2018-02-14T22:52:00.938Z,22.58
2018-02-14T22:54:29.140Z,24.63
2018-02-14T22:56:57.334Z,22.27
2018-02-14T22:59:25.517Z,18.95
2018-02-14T23:01:53.716Z,26.83
2018-02-14T23:04:21.902Z,22.75
2018-02-14T23:06:50.119Z,21.55
2018-02-14T23:09:19.067Z,21.77
2018-02-14T23:11:47.244Z,28.50
2018-02-14T23:14:15.432Z,23.08
2018-02-14T23:16:43.617Z,24.60
2018-02-14T23:19:11.811Z,26.62
2018-02-14T23:21:40.785Z,21.95
2018-02-14T23:24:08.975Z,21.40
2018-02-14T23:26:37.918Z,24.73
2018-02-14T23:29:06.108Z,22.45
2018-02-14T23:31:34.318Z,28.45
2018-02-14T23:34:02.514Z,24.25
2018-02-14T23:36:30.693Z,22.25
2018-02-14T23:38:58.887Z,24.23
2018-02-14T23:41:27.079Z,27.75
2018-02-14T23:43:55.258Z,20.37
2018-02-14T23:46:23.438Z,25.98
2018-02-14T23:48:51.650Z,21.25
2018-02-14T23:51:20.607Z,23.40
2018-02-14T23:53:48.790Z,23.20
2018-02-14T23:56:16.981Z,23.85
2018-02-14T23:58:45.158Z,23.58
